EGEC/CAL METAR and TAF weather

Enter ICAO airport designator
Station Type Date Time Source
EGEC METAR 2019/06/26 16:20 UTC NOAA

EGEC 261620Z 27009KT CAVOK 16/12 Q1031


Station Type Date Time Source
EGEC Decoded METAR 2019/06/26 16:20 UTC NOAA

Campbeltown, United Kingdom (EGEC) 55-26-14N 005-41-11W
Jun 26, 2019 - 12:20 PM EDT / 2019.06.26 1620 UTC
Wind: from the W (270 degrees) at 10 MPH (9 KT):0
Visibility: greater than 7 mile(s):0
Temperature: 60 F (16 C)
Dew Point: 53 F (12 C)
Relative Humidity: 77%
Pressure (altimeter): 30.45 in. Hg (1031 hPa)
ob: EGEC 261620Z 27009KT CAVOK 16/12 Q1031
cycle: 16

Station Type Date Time Source
EGEC TAF UTC NOAA

Error!

Example: see airport list